sensor_id;sensor_type;location;lat;lon;timestamp;pressure;altitude;pressure_sealevel;temperature;humidity
76827;BME280;65788;52.284;20.890;2023-05-29T00:02:09;100737.90;;;21.98;34.35
76827;BME280;65788;52.284;20.890;2023-05-29T00:04:41;100737.92;;;22.01;34.42
76827;BME280;65788;52.284;20.890;2023-05-29T00:07:08;100734.97;;;22.18;34.09
76827;BME280;65788;52.284;20.890;2023-05-29T00:09:35;100728.61;;;22.20;33.95
76827;BME280;65788;52.284;20.890;2023-05-29T00:12:03;100731.27;;;22.20;33.88
76827;BME280;65788;52.284;20.890;2023-05-29T00:14:30;100726.73;;;22.22;33.90
76827;BME280;65788;52.284;20.890;2023-05-29T00:16:57;100725.11;;;22.18;34.01
76827;BME280;65788;52.284;20.890;2023-05-29T00:19:25;100725.30;;;22.17;33.99
76827;BME280;65788;52.284;20.890;2023-05-29T00:21:52;100728.00;;;22.06;34.22
76827;BME280;65788;52.284;20.890;2023-05-29T00:24:19;100725.88;;;21.75;34.77
76827;BME280;65788;52.284;20.890;2023-05-29T00:26:48;100728.54;;;21.54;35.01
76827;BME280;65788;52.284;20.890;2023-05-29T00:29:15;100729.80;;;21.62;35.04
76827;BME280;65788;52.284;20.890;2023-05-29T00:31:42;100730.67;;;21.71;34.74
76827;BME280;65788;52.284;20.890;2023-05-29T00:34:10;100726.14;;;21.89;34.46
76827;BME280;65788;52.284;20.890;2023-05-29T00:36:37;100727.81;;;22.00;34.31
76827;BME280;65788;52.284;20.890;2023-05-29T00:39:05;100728.02;;;22.00;34.39
76827;BME280;65788;52.284;20.890;2023-05-29T00:41:33;100732.09;;;21.96;34.50
76827;BME280;65788;52.284;20.890;2023-05-29T00:44:00;100733.96;;;21.91;34.40
76827;BME280;65788;52.284;20.890;2023-05-29T00:46:27;100734.36;;;21.85;34.40
76827;BME280;65788;52.284;20.890;2023-05-29T00:48:56;100736.35;;;21.72;34.69
76827;BME280;65788;52.284;20.890;2023-05-29T00:51:22;100740.38;;;21.58;34.79
76827;BME280;65788;52.284;20.890;2023-05-29T00:53:50;100736.35;;;21.58;34.81
76827;BME280;65788;52.284;20.890;2023-05-29T00:56:20;100735.79;;;21.59;34.68
76827;BME280;65788;52.284;20.890;2023-05-29T00:58:49;100734.06;;;21.81;34.43
76827;BME280;65788;52.284;20.890;2023-05-29T01:01:20;100733.14;;;21.91;34.25
76827;BME280;65788;52.284;20.890;2023-05-29T01:03:51;100734.75;;;21.94;34.21
76827;BME280;65788;52.284;20.890;2023-05-29T01:06:23;100735.83;;;21.84;34.24
76827;BME280;65788;52.284;20.890;2023-05-29T01:08:52;100734.33;;;21.80;34.25
76827;BME280;65788;52.284;20.890;2023-05-29T01:11:45;100732.31;;;21.85;34.34
76827;BME280;65788;52.284;20.890;2023-05-29T01:17:23;100728.67;;;21.88;34.18
76827;BME280;65788;52.284;20.890;2023-05-29T01:20:21;100732.20;;;21.91;34.00
76827;BME280;65788;52.284;20.890;2023-05-29T01:27:57;100726.06;;;21.88;34.00
76827;BME280;65788;52.284;20.890;2023-05-29T01:30:28;100730.93;;;21.77;34.15
76827;BME280;65788;52.284;20.890;2023-05-29T01:32:59;100732.20;;;21.83;33.99
76827;BME280;65788;52.284;20.890;2023-05-29T01:35:26;100729.39;;;21.62;34.17
76827;BME280;65788;52.284;20.890;2023-05-29T01:37:53;100728.27;;;21.54;34.43
76827;BME280;65788;52.284;20.890;2023-05-29T01:40:21;100731.40;;;21.77;33.92
76827;BME280;65788;52.284;20.890;2023-05-29T01:42:49;100733.61;;;21.80;33.94
76827;BME280;65788;52.284;20.890;2023-05-29T01:45:16;100734.23;;;21.79;34.04
76827;BME280;65788;52.284;20.890;2023-05-29T01:47:46;100731.27;;;21.82;33.79
76827;BME280;65788;52.284;20.890;2023-05-29T01:50:15;100733.58;;;21.83;33.87
76827;BME280;65788;52.284;20.890;2023-05-29T01:52:46;100734.99;;;21.82;33.94
76827;BME280;65788;52.284;20.890;2023-05-29T01:55:13;100732.29;;;21.83;33.86
76827;BME280;65788;52.284;20.890;2023-05-29T01:57:40;100734.30;;;21.45;34.62
76827;BME280;65788;52.284;20.890;2023-05-29T02:00:10;100734.70;;;21.49;34.45
76827;BME280;65788;52.284;20.890;2023-05-29T02:02:39;100729.41;;;21.62;34.11
76827;BME280;65788;52.284;20.890;2023-05-29T02:05:11;100730.37;;;21.49;34.23
76827;BME280;65788;52.284;20.890;2023-05-29T02:07:38;100726.64;;;21.66;33.94
76827;BME280;65788;52.284;20.890;2023-05-29T02:10:08;100722.84;;;21.72;33.92
76827;BME280;65788;52.284;20.890;2023-05-29T02:12:35;100717.52;;;21.73;33.82
76827;BME280;65788;52.284;20.890;2023-05-29T02:15:01;100714.30;;;21.74;33.81
76827;BME280;65788;52.284;20.890;2023-05-29T02:17:30;100711.83;;;21.73;33.68
76827;BME280;65788;52.284;20.890;2023-05-29T02:19:57;100708.82;;;21.64;33.89
76827;BME280;65788;52.284;20.890;2023-05-29T02:22:28;100709.19;;;21.38;34.49
76827;BME280;65788;52.284;20.890;2023-05-29T02:24:55;100706.01;;;21.21;34.65
76827;BME280;65788;52.284;20.890;2023-05-29T02:27:22;100711.46;;;21.01;35.11
76827;BME280;65788;52.284;20.890;2023-05-29T02:29:50;100711.51;;;21.18;35.00
76827;BME280;65788;52.284;20.890;2023-05-29T02:32:17;100705.90;;;21.41;34.33
76827;BME280;65788;52.284;20.890;2023-05-29T02:34:44;100708.36;;;21.55;34.08
76827;BME280;65788;52.284;20.890;2023-05-29T02:37:13;100701.25;;;21.60;33.82
76827;BME280;65788;52.284;20.890;2023-05-29T02:39:40;100703.50;;;21.63;33.73
76827;BME280;65788;52.284;20.890;2023-05-29T02:42:07;100698.98;;;21.65;33.71
76827;BME280;65788;52.284;20.890;2023-05-29T02:44:35;100698.35;;;21.67;33.55
76827;BME280;65788;52.284;20.890;2023-05-29T02:47:04;100698.95;;;21.67;33.56
76827;BME280;65788;52.284;20.890;2023-05-29T02:49:31;100697.07;;;21.66;33.39
76827;BME280;65788;52.284;20.890;2023-05-29T02:51:59;100693.98;;;21.67;33.55
76827;BME280;65788;52.284;20.890;2023-05-29T02:54:26;100697.73;;;21.63;33.55
76827;BME280;65788;52.284;20.890;2023-05-29T02:56:53;100697.77;;;21.36;34.01
76827;BME280;65788;52.284;20.890;2023-05-29T02:59:21;100703.45;;;21.33;34.18
76827;BME280;65788;52.284;20.890;2023-05-29T03:01:48;100699.79;;;21.50;33.95
76827;BME280;65788;52.284;20.890;2023-05-29T03:04:16;100697.48;;;21.58;33.61
76827;BME280;65788;52.284;20.890;2023-05-29T03:06:45;100698.19;;;21.62;33.37
76827;BME280;65788;52.284;20.890;2023-05-29T03:09:12;100693.66;;;21.64;33.47
76827;BME280;65788;52.284;20.890;2023-05-29T03:11:40;100698.17;;;21.64;33.41
76827;BME280;65788;52.284;20.890;2023-05-29T03:14:08;100701.09;;;21.63;33.30
76827;BME280;65788;52.284;20.890;2023-05-29T03:16:35;100702.36;;;21.59;33.57
76827;BME280;65788;52.284;20.890;2023-05-29T03:19:04;100703.98;;;21.49;33.77
76827;BME280;65788;52.284;20.890;2023-05-29T03:21:33;100706.73;;;21.25;34.20
76827;BME280;65788;52.284;20.890;2023-05-29T03:24:00;100706.39;;;21.15;34.37
76827;BME280;65788;52.284;20.890;2023-05-29T03:26:27;100710.81;;;21.09;34.57
76827;BME280;65788;52.284;20.890;2023-05-29T03:28:55;100713.40;;;21.26;34.37
76827;BME280;65788;52.284;20.890;2023-05-29T03:31:22;100709.52;;;21.48;33.82
76827;BME280;65788;52.284;20.890;2023-05-29T03:33:49;100713.66;;;21.53;33.65
76827;BME280;65788;52.284;20.890;2023-05-29T03:36:17;100715.38;;;21.55;33.66
76827;BME280;65788;52.284;20.890;2023-05-29T03:38:44;100716.17;;;21.55;33.48
76827;BME280;65788;52.284;20.890;2023-05-29T03:41:11;100719.34;;;21.55;33.51
76827;BME280;65788;52.284;20.890;2023-05-29T03:43:39;100720.32;;;21.54;33.42
76827;BME280;65788;52.284;20.890;2023-05-29T03:46:07;100720.09;;;21.56;33.41
76827;BME280;65788;52.284;20.890;2023-05-29T03:48:33;100722.08;;;21.59;33.39
76827;BME280;65788;52.284;20.890;2023-05-29T03:51:02;100722.40;;;21.57;33.31
76827;BME280;65788;52.284;20.890;2023-05-29T03:53:29;100721.90;;;21.56;33.36
76827;BME280;65788;52.284;20.890;2023-05-29T03:55:56;100720.77;;;21.58;33.47
76827;BME280;65788;52.284;20.890;2023-05-29T03:58:27;100719.95;;;21.58;33.37
76827;BME280;65788;52.284;20.890;2023-05-29T04:00:54;100721.62;;;21.58;33.53
76827;BME280;65788;52.284;20.890;2023-05-29T04:03:21;100720.39;;;21.56;33.61
76827;BME280;65788;52.284;20.890;2023-05-29T04:05:49;100724.08;;;21.57;33.48
76827;BME280;65788;52.284;20.890;2023-05-29T04:08:17;100730.11;;;21.52;33.67
76827;BME280;65788;52.284;20.890;2023-05-29T04:10:44;100730.11;;;21.50;33.78
76827;BME280;65788;52.284;20.890;2023-05-29T04:13:32;100730.19;;;21.57;33.74
76827;BME280;65788;52.284;20.890;2023-05-29T04:16:20;100733.71;;;21.57;34.39
76827;BME280;65788;52.284;20.890;2023-05-29T04:18:47;100738.11;;;21.59;35.30
76827;BME280;65788;52.284;20.890;2023-05-29T04:21:18;100740.24;;;21.59;35.32
76827;BME280;65788;52.284;20.890;2023-05-29T04:23:45;100739.82;;;21.63;35.19
76827;BME280;65788;52.284;20.890;2023-05-29T04:26:12;100740.61;;;21.62;35.02
76827;BME280;65788;52.284;20.890;2023-05-29T04:28:40;100743.39;;;21.63;35.20
76827;BME280;65788;52.284;20.890;2023-05-29T04:31:08;100742.74;;;21.66;35.09
76827;BME280;65788;52.284;20.890;2023-05-29T04:33:42;100744.93;;;21.46;35.57
76827;BME280;65788;52.284;20.890;2023-05-29T04:36:11;100747.92;;;21.49;35.69
76827;BME280;65788;52.284;20.890;2023-05-29T04:38:41;100745.45;;;21.55;35.59
76827;BME280;65788;52.284;20.890;2023-05-29T04:41:07;100744.75;;;21.59;35.63
76827;BME280;65788;52.284;20.890;2023-05-29T04:43:34;100745.12;;;21.60;35.80
76827;BME280;65788;52.284;20.890;2023-05-29T04:46:04;100739.35;;;21.59;35.88
76827;BME280;65788;52.284;20.890;2023-05-29T04:48:31;100747.13;;;21.50;36.90
76827;BME280;65788;52.284;20.890;2023-05-29T04:50:58;100746.89;;;21.45;37.09
76827;BME280;65788;52.284;20.890;2023-05-29T04:53:27;100746.92;;;21.43;37.34
76827;BME280;65788;52.284;20.890;2023-05-29T04:55:54;100743.48;;;21.43;37.03
76827;BME280;65788;52.284;20.890;2023-05-29T04:58:24;100741.19;;;21.21;37.43
76827;BME280;65788;52.284;20.890;2023-05-29T05:00:52;100740.46;;;20.98;38.56
76827;BME280;65788;52.284;20.890;2023-05-29T05:03:19;100740.91;;;20.48;39.42
76827;BME280;65788;52.284;20.890;2023-05-29T05:05:46;100741.05;;;20.66;39.10
76827;BME280;65788;52.284;20.890;2023-05-29T05:08:14;100734.77;;;21.10;38.10
76827;BME280;65788;52.284;20.890;2023-05-29T05:10:41;100734.86;;;21.45;38.14
76827;BME280;65788;52.284;20.890;2023-05-29T05:13:08;100734.23;;;21.44;37.62
76827;BME280;65788;52.284;20.890;2023-05-29T05:15:36;100733.83;;;21.05;37.94
76827;BME280;65788;52.284;20.890;2023-05-29T05:18:05;100732.09;;;20.98;38.03
76827;BME280;65788;52.284;20.890;2023-05-29T05:20:35;100738.05;;;20.89;38.09
76827;BME280;65788;52.284;20.890;2023-05-29T05:23:02;100738.50;;;21.36;37.43
76827;BME280;65788;52.284;20.890;2023-05-29T05:25:29;100738.37;;;21.59;36.63
76827;BME280;65788;52.284;20.890;2023-05-29T05:27:57;100735.07;;;21.63;37.09
76827;BME280;65788;52.284;20.890;2023-05-29T05:30:24;100732.52;;;21.66;37.28
76827;BME280;65788;52.284;20.890;2023-05-29T05:32:51;100732.06;;;21.68;37.15
76827;BME280;65788;52.284;20.890;2023-05-29T05:35:19;100734.27;;;21.71;37.23
76827;BME280;65788;52.284;20.890;2023-05-29T05:37:46;100738.21;;;21.70;37.13
76827;BME280;65788;52.284;20.890;2023-05-29T05:40:13;100740.90;;;21.71;37.13
76827;BME280;65788;52.284;20.890;2023-05-29T05:42:41;100741.65;;;21.72;37.06
76827;BME280;65788;52.284;20.890;2023-05-29T05:45:09;100743.55;;;21.72;37.12
76827;BME280;65788;52.284;20.890;2023-05-29T05:47:36;100741.77;;;21.74;36.92
76827;BME280;65788;52.284;20.890;2023-05-29T05:50:05;100746.86;;;21.74;36.67
76827;BME280;65788;52.284;20.890;2023-05-29T05:52:32;100745.39;;;21.76;36.74
76827;BME280;65788;52.284;20.890;2023-05-29T05:55:00;100743.41;;;21.77;36.64
76827;BME280;65788;52.284;20.890;2023-05-29T05:57:28;100740.61;;;21.78;36.70
76827;BME280;65788;52.284;20.890;2023-05-29T05:59:55;100739.58;;;21.71;36.79
76827;BME280;65788;52.284;20.890;2023-05-29T06:02:23;100738.67;;;21.13;37.60
76827;BME280;65788;52.284;20.890;2023-05-29T06:04:51;100744.11;;;20.91;38.15
76827;BME280;65788;52.284;20.890;2023-05-29T06:07:18;100741.02;;;20.62;39.12
76827;BME280;65788;52.284;20.890;2023-05-29T06:09:45;100738.11;;;20.69;39.54
76827;BME280;65788;52.284;20.890;2023-05-29T06:12:14;100737.72;;;21.53;38.16
76827;BME280;65788;52.284;20.890;2023-05-29T06:14:42;100741.15;;;21.88;37.79
76827;BME280;65788;52.284;20.890;2023-05-29T06:17:09;100736.67;;;22.00;37.64
76827;BME280;65788;52.284;20.890;2023-05-29T06:19:37;100735.20;;;22.07;37.54
76827;BME280;65788;52.284;20.890;2023-05-29T06:22:05;100733.67;;;22.04;37.75
76827;BME280;65788;52.284;20.890;2023-05-29T06:24:32;100733.17;;;22.04;37.71
76827;BME280;65788;52.284;20.890;2023-05-29T06:27:00;100733.20;;;22.01;37.39
76827;BME280;65788;52.284;20.890;2023-05-29T06:29:28;100736.34;;;22.08;37.49
76827;BME280;65788;52.284;20.890;2023-05-29T06:31:59;100735.75;;;22.27;36.33
76827;BME280;65788;52.284;20.890;2023-05-29T06:34:27;100737.99;;;22.42;35.77
76827;BME280;65788;52.284;20.890;2023-05-29T06:36:53;100740.11;;;22.37;35.80
76827;BME280;65788;52.284;20.890;2023-05-29T06:39:22;100737.58;;;22.45;35.05
76827;BME280;65788;52.284;20.890;2023-05-29T06:41:48;100736.69;;;22.57;33.95
76827;BME280;65788;52.284;20.890;2023-05-29T06:44:17;100731.53;;;22.66;34.12
76827;BME280;65788;52.284;20.890;2023-05-29T06:46:46;100729.39;;;22.72;33.97
76827;BME280;65788;52.284;20.890;2023-05-29T06:49:12;100730.61;;;22.74;33.86
76827;BME280;65788;52.284;20.890;2023-05-29T06:51:39;100731.95;;;22.76;34.16
76827;BME280;65788;52.284;20.890;2023-05-29T06:54:08;100731.05;;;22.80;33.83
76827;BME280;65788;52.284;20.890;2023-05-29T06:56:34;100732.70;;;22.83;34.20
76827;BME280;65788;52.284;20.890;2023-05-29T06:59:06;100730.86;;;22.85;34.12
76827;BME280;65788;52.284;20.890;2023-05-29T07:01:33;100728.57;;;22.83;33.79
76827;BME280;65788;52.284;20.890;2023-05-29T07:04:00;100730.66;;;22.73;33.70
76827;BME280;65788;52.284;20.890;2023-05-29T07:06:29;100733.23;;;22.68;33.32
76827;BME280;65788;52.284;20.890;2023-05-29T07:08:56;100734.30;;;22.64;33.58
76827;BME280;65788;52.284;20.890;2023-05-29T07:11:22;100734.67;;;22.63;33.79
76827;BME280;65788;52.284;20.890;2023-05-29T07:13:51;100733.23;;;22.63;33.65
76827;BME280;65788;52.284;20.890;2023-05-29T07:16:18;100733.91;;;22.63;33.25
76827;BME280;65788;52.284;20.890;2023-05-29T07:18:45;100734.02;;;22.64;34.18
76827;BME280;65788;52.284;20.890;2023-05-29T07:21:13;100740.63;;;22.73;34.70
76827;BME280;65788;52.284;20.890;2023-05-29T07:23:40;100741.31;;;22.80;33.88
76827;BME280;65788;52.284;20.890;2023-05-29T07:26:07;100742.98;;;22.83;34.39
76827;BME280;65788;52.284;20.890;2023-05-29T07:28:35;100743.88;;;22.88;34.59
76827;BME280;65788;52.284;20.890;2023-05-29T07:31:02;100746.42;;;22.91;35.16
76827;BME280;65788;52.284;20.890;2023-05-29T07:33:29;100745.98;;;22.88;34.21
76827;BME280;65788;52.284;20.890;2023-05-29T07:35:57;100749.38;;;22.85;34.55
76827;BME280;65788;52.284;20.890;2023-05-29T07:38:24;100749.02;;;22.84;34.42
76827;BME280;65788;52.284;20.890;2023-05-29T07:40:51;100749.00;;;22.81;34.71
76827;BME280;65788;52.284;20.890;2023-05-29T07:43:19;100748.02;;;22.81;34.60
76827;BME280;65788;52.284;20.890;2023-05-29T07:45:46;100750.18;;;22.80;34.74
76827;BME280;65788;52.284;20.890;2023-05-29T07:48:13;100749.86;;;22.78;34.83
76827;BME280;65788;52.284;20.890;2023-05-29T07:50:41;100751.75;;;22.78;34.76
76827;BME280;65788;52.284;20.890;2023-05-29T07:53:08;100745.08;;;22.77;34.79
76827;BME280;65788;52.284;20.890;2023-05-29T07:55:35;100743.13;;;22.89;35.75
76827;BME280;65788;52.284;20.890;2023-05-29T07:58:06;100743.72;;;23.01;35.21
76827;BME280;65788;52.284;20.890;2023-05-29T08:00:34;100744.90;;;23.03;35.26
76827;BME280;65788;52.284;20.890;2023-05-29T08:03:00;100743.30;;;23.06;35.12
76827;BME280;65788;52.284;20.890;2023-05-29T08:05:31;100746.81;;;23.12;34.77
76827;BME280;65788;52.284;20.890;2023-05-29T08:08:01;100745.33;;;23.11;34.75
76827;BME280;65788;52.284;20.890;2023-05-29T08:10:29;100746.08;;;23.16;34.95
76827;BME280;65788;52.284;20.890;2023-05-29T08:12:56;100750.67;;;23.20;34.93
76827;BME280;65788;52.284;20.890;2023-05-29T08:15:23;100746.19;;;23.24;34.19
76827;BME280;65788;52.284;20.890;2023-05-29T08:17:52;100743.52;;;23.29;34.08
76827;BME280;65788;52.284;20.890;2023-05-29T08:20:19;100741.20;;;23.32;34.07
76827;BME280;65788;52.284;20.890;2023-05-29T08:22:47;100740.90;;;23.31;34.26
76827;BME280;65788;52.284;20.890;2023-05-29T08:25:15;100744.67;;;23.34;33.94
76827;BME280;65788;52.284;20.890;2023-05-29T08:27:42;100739.27;;;23.39;33.42
76827;BME280;65788;52.284;20.890;2023-05-29T08:30:10;100735.59;;;23.33;33.70
76827;BME280;65788;52.284;20.890;2023-05-29T08:32:39;100734.48;;;23.23;33.72
76827;BME280;65788;52.284;20.890;2023-05-29T08:35:07;100736.31;;;23.15;33.91
76827;BME280;65788;52.284;20.890;2023-05-29T08:37:34;100741.17;;;23.15;34.04
76827;BME280;65788;52.284;20.890;2023-05-29T08:40:03;100741.11;;;23.16;34.16
76827;BME280;65788;52.284;20.890;2023-05-29T08:42:37;100742.92;;;23.18;33.85
76827;BME280;65788;52.284;20.890;2023-05-29T08:45:10;100742.27;;;23.19;33.78
76827;BME280;65788;52.284;20.890;2023-05-29T08:47:40;100742.09;;;23.35;34.11
76827;BME280;65788;52.284;20.890;2023-05-29T08:50:10;100739.52;;;23.41;33.56
76827;BME280;65788;52.284;20.890;2023-05-29T08:52:38;100738.54;;;23.45;33.59
76827;BME280;65788;52.284;20.890;2023-05-29T08:55:08;100736.71;;;23.48;33.29
76827;BME280;65788;52.284;20.890;2023-05-29T08:57:36;100737.45;;;23.45;33.55
76827;BME280;65788;52.284;20.890;2023-05-29T09:00:08;100738.30;;;23.51;33.40
76827;BME280;65788;52.284;20.890;2023-05-29T09:02:44;100735.43;;;23.52;33.43
76827;BME280;65788;52.284;20.890;2023-05-29T09:05:11;100738.42;;;23.60;33.39
76827;BME280;65788;52.284;20.890;2023-05-29T09:07:39;100737.30;;;23.56;33.03
76827;BME280;65788;52.284;20.890;2023-05-29T09:13:46;100731.87;;;23.64;33.06
76827;BME280;65788;52.284;20.890;2023-05-29T09:16:16;100728.30;;;23.64;32.93
76827;BME280;65788;52.284;20.890;2023-05-29T09:18:45;100725.98;;;23.68;32.79
76827;BME280;65788;52.284;20.890;2023-05-29T09:21:27;100727.45;;;23.72;33.08
76827;BME280;65788;52.284;20.890;2023-05-29T09:24:03;100725.45;;;23.72;32.89
76827;BME280;65788;52.284;20.890;2023-05-29T09:26:33;100726.66;;;23.69;32.96
76827;BME280;65788;52.284;20.890;2023-05-29T09:29:01;100727.52;;;23.68;32.85
76827;BME280;65788;52.284;20.890;2023-05-29T09:31:31;100728.73;;;23.69;32.57
76827;BME280;65788;52.284;20.890;2023-05-29T09:34:01;100729.16;;;23.73;32.63
76827;BME280;65788;52.284;20.890;2023-05-29T09:36:30;100727.45;;;23.77;32.84
76827;BME280;65788;52.284;20.890;2023-05-29T09:39:01;100721.84;;;23.83;32.66
76827;BME280;65788;52.284;20.890;2023-05-29T09:41:31;100718.41;;;23.82;32.74
76827;BME280;65788;52.284;20.890;2023-05-29T09:43:59;100715.80;;;23.82;32.69
76827;BME280;65788;52.284;20.890;2023-05-29T09:46:34;100714.95;;;23.60;32.99
76827;BME280;65788;52.284;20.890;2023-05-29T09:49:11;100713.98;;;23.52;33.21
76827;BME280;65788;52.284;20.890;2023-05-29T09:51:40;100713.37;;;23.50;33.60
76827;BME280;65788;52.284;20.890;2023-05-29T09:54:16;100716.34;;;23.48;33.41
76827;BME280;65788;52.284;20.890;2023-05-29T09:56:45;100717.08;;;23.58;34.03
76827;BME280;65788;52.284;20.890;2023-05-29T09:59:13;100713.08;;;23.66;33.16
76827;BME280;65788;52.284;20.890;2023-05-29T10:01:43;100711.30;;;23.69;33.25
76827;BME280;65788;52.284;20.890;2023-05-29T10:04:11;100709.28;;;23.74;33.14
76827;BME280;65788;52.284;20.890;2023-05-29T10:06:41;100706.48;;;23.75;32.97
76827;BME280;65788;52.284;20.890;2023-05-29T10:09:12;100702.21;;;23.80;33.06
76827;BME280;65788;52.284;20.890;2023-05-29T10:11:42;100700.90;;;23.81;33.11
76827;BME280;65788;52.284;20.890;2023-05-29T10:14:18;100702.66;;;23.89;32.88
76827;BME280;65788;52.284;20.890;2023-05-29T10:16:47;100697.95;;;23.93;33.18
76827;BME280;65788;52.284;20.890;2023-05-29T10:19:25;100695.95;;;23.94;32.99
76827;BME280;65788;52.284;20.890;2023-05-29T10:21:54;100692.40;;;23.95;32.84
76827;BME280;65788;52.284;20.890;2023-05-29T10:24:22;100693.20;;;23.96;32.91
76827;BME280;65788;52.284;20.890;2023-05-29T10:26:54;100691.52;;;23.92;32.84
76827;BME280;65788;52.284;20.890;2023-05-29T10:29:39;100690.75;;;23.93;33.05
76827;BME280;65788;52.284;20.890;2023-05-29T10:32:29;100694.35;;;23.92;33.02
76827;BME280;65788;52.284;20.890;2023-05-29T10:35:12;100693.05;;;23.85;33.31
76827;BME280;65788;52.284;20.890;2023-05-29T10:40:12;100700.36;;;23.82;33.06
76827;BME280;65788;52.284;20.890;2023-05-29T10:42:44;100696.25;;;24.00;32.41
76827;BME280;65788;52.284;20.890;2023-05-29T10:50:46;100696.50;;;23.84;33.47
76827;BME280;65788;52.284;20.890;2023-05-29T10:53:17;100688.98;;;23.92;32.91
76827;BME280;65788;52.284;20.890;2023-05-29T10:55:45;100689.68;;;23.91;32.79
76827;BME280;65788;52.284;20.890;2023-05-29T10:58:21;100686.86;;;24.05;33.11
76827;BME280;65788;52.284;20.890;2023-05-29T11:00:54;100686.69;;;24.07;32.76
76827;BME280;65788;52.284;20.890;2023-05-29T11:03:23;100685.59;;;24.03;33.17
76827;BME280;65788;52.284;20.890;2023-05-29T11:08:43;100670.28;;;24.04;33.12
76827;BME280;65788;52.284;20.890;2023-05-29T11:11:15;100668.61;;;24.01;33.41
76827;BME280;65788;52.284;20.890;2023-05-29T11:13:52;100666.80;;;24.06;33.23
76827;BME280;65788;52.284;20.890;2023-05-29T11:18:59;100670.11;;;24.06;33.12
76827;BME280;65788;52.284;20.890;2023-05-29T11:21:38;100670.70;;;24.08;33.49
76827;BME280;65788;52.284;20.890;2023-05-29T11:24:33;100662.83;;;24.06;33.34
76827;BME280;65788;52.284;20.890;2023-05-29T11:27:00;100664.73;;;24.06;33.14
76827;BME280;65788;52.284;20.890;2023-05-29T11:29:33;100665.53;;;24.09;33.35
76827;BME280;65788;52.284;20.890;2023-05-29T11:32:06;100668.98;;;24.12;33.19
76827;BME280;65788;52.284;20.890;2023-05-29T11:34:40;100668.77;;;24.16;33.37
76827;BME280;65788;52.284;20.890;2023-05-29T11:37:07;100667.38;;;24.17;32.81
76827;BME280;65788;52.284;20.890;2023-05-29T11:39:37;100664.53;;;24.23;33.06
76827;BME280;65788;52.284;20.890;2023-05-29T11:42:04;100666.16;;;24.21;33.54
76827;BME280;65788;52.284;20.890;2023-05-29T11:44:34;100663.94;;;24.05;33.71
76827;BME280;65788;52.284;20.890;2023-05-29T11:47:06;100661.86;;;23.97;33.74
76827;BME280;65788;52.284;20.890;2023-05-29T11:49:36;100660.34;;;23.94;33.76
76827;BME280;65788;52.284;20.890;2023-05-29T11:52:09;100661.45;;;23.89;33.82
76827;BME280;65788;52.284;20.890;2023-05-29T11:54:38;100661.83;;;23.88;33.78
76827;BME280;65788;52.284;20.890;2023-05-29T11:57:05;100657.52;;;23.88;33.85
76827;BME280;65788;52.284;20.890;2023-05-29T11:59:33;100652.34;;;23.89;33.97
76827;BME280;65788;52.284;20.890;2023-05-29T12:02:03;100654.44;;;23.87;33.96
76827;BME280;65788;52.284;20.890;2023-05-29T12:04:30;100656.90;;;23.86;34.08
76827;BME280;65788;52.284;20.890;2023-05-29T12:06:59;100657.01;;;23.88;34.10
76827;BME280;65788;52.284;20.890;2023-05-29T12:09:29;100657.92;;;23.99;34.05
76827;BME280;65788;52.284;20.890;2023-05-29T12:12:02;100660.05;;;24.12;33.68
76827;BME280;65788;52.284;20.890;2023-05-29T12:14:29;100655.27;;;24.11;33.71
76827;BME280;65788;52.284;20.890;2023-05-29T12:16:57;100654.51;;;24.17;33.64
76827;BME280;65788;52.284;20.890;2023-05-29T12:19:24;100649.45;;;24.19;33.79
76827;BME280;65788;52.284;20.890;2023-05-29T12:21:51;100646.17;;;24.29;33.97
76827;BME280;65788;52.284;20.890;2023-05-29T12:24:19;100641.67;;;24.27;33.41
76827;BME280;65788;52.284;20.890;2023-05-29T12:26:47;100642.48;;;24.23;33.57
76827;BME280;65788;52.284;20.890;2023-05-29T12:29:14;100641.33;;;24.33;34.09
76827;BME280;65788;52.284;20.890;2023-05-29T12:31:42;100641.90;;;24.36;33.66
76827;BME280;65788;52.284;20.890;2023-05-29T12:34:11;100639.84;;;24.36;33.43
76827;BME280;65788;52.284;20.890;2023-05-29T12:36:42;100643.19;;;24.36;33.52
76827;BME280;65788;52.284;20.890;2023-05-29T12:39:12;100642.03;;;24.37;33.35
76827;BME280;65788;52.284;20.890;2023-05-29T12:41:40;100638.18;;;24.37;33.31
76827;BME280;65788;52.284;20.890;2023-05-29T12:44:08;100636.36;;;24.42;33.60
76827;BME280;65788;52.284;20.890;2023-05-29T12:46:37;100637.80;;;24.50;33.54
76827;BME280;65788;52.284;20.890;2023-05-29T12:49:16;100637.05;;;24.43;33.46
76827;BME280;65788;52.284;20.890;2023-05-29T12:51:47;100632.06;;;24.46;33.48
76827;BME280;65788;52.284;20.890;2023-05-29T12:54:15;100632.39;;;24.48;33.85
76827;BME280;65788;52.284;20.890;2023-05-29T12:56:43;100630.02;;;24.44;33.79
76827;BME280;65788;52.284;20.890;2023-05-29T12:59:12;100627.58;;;24.49;33.47
76827;BME280;65788;52.284;20.890;2023-05-29T13:01:39;100626.13;;;24.54;33.74
76827;BME280;65788;52.284;20.890;2023-05-29T13:04:07;100623.80;;;24.56;33.62
76827;BME280;65788;52.284;20.890;2023-05-29T13:06:37;100616.96;;;24.46;33.94
76827;BME280;65788;52.284;20.890;2023-05-29T13:09:04;100616.11;;;24.46;33.54
76827;BME280;65788;52.284;20.890;2023-05-29T13:11:34;100615.48;;;24.48;33.55
76827;BME280;65788;52.284;20.890;2023-05-29T13:14:03;100612.75;;;24.49;33.49
76827;BME280;65788;52.284;20.890;2023-05-29T13:16:33;100604.30;;;24.51;33.83